Time;durP1;ratioP1;P1;durP2;ratioP2;P2;SDS_P1;SDS_P2;PMS_P1;PMS_P2;Temp;Humidity;BMP_temperature;BMP_pressure;BME280_temperature;BME280_humidity;BME280_pressure;Samples;Min_cycle;Max_cycle;Signal;HPM_P1;HPM_P2
2022/12/27 00:02:11;;;;;;;2.22;1.10;;;;;;;14.57;52.13;102042.63;6158789;23;20001;-88
2022/12/27 00:04:37;;;;;;;2.22;1.13;;;;;;;14.55;51.88;102047.78;6132765;23;20094;-88
2022/12/27 00:07:03;;;;;;;2.42;1.10;;;;;;;14.55;52.08;102037.41;6108404;23;20412;-88
2022/12/27 00:09:28;;;;;;;3.42;1.20;;;;;;;14.55;51.97;102050.38;6108325;23;20013;-88
2022/12/27 00:11:53;;;;;;;2.63;1.10;;;;;;;14.55;51.97;102049.50;6108434;23;20084;-88
2022/12/27 00:14:19;;;;;;;2.70;0.93;;;;;;;14.54;52.02;102038.19;6108346;23;20013;-87
2022/12/27 00:16:44;;;;;;;3.13;1.10;;;;;;;14.55;51.98;102044.31;6133245;23;20021;-89
2022/12/27 00:19:10;;;;;;;3.42;1.20;;;;;;;14.54;52.11;102043.38;6132895;23;20037;-89
2022/12/27 00:21:35;;;;;;;2.78;1.10;;;;;;;14.54;51.92;102047.69;6156908;23;20497;-89
2022/12/27 00:24:01;;;;;;;2.58;1.02;;;;;;;14.54;52.17;102051.16;6132978;23;20060;-86
2022/12/27 00:26:29;;;;;;;2.78;1.05;;;;;;;14.55;52.05;102065.03;6108144;23;20100;-87
2022/12/27 00:28:55;;;;;;;3.15;0.98;;;;;;;14.55;51.80;102059.84;6157126;23;20442;-88
2022/12/27 00:31:22;;;;;;;2.28;1.00;;;;;;;14.54;52.03;102064.09;6132484;23;20016;-88
2022/12/27 00:33:49;;;;;;;2.45;1.00;;;;;;;14.54;52.00;102056.34;6158545;23;20008;-87
2022/12/27 00:36:19;;;;;;;2.22;0.90;;;;;;;14.55;51.94;102065.03;6107921;23;20354;-88
2022/12/27 00:38:45;;;;;;;2.45;1.05;;;;;;;14.53;51.96;102059.78;6157361;23;20056;-89
2022/12/27 00:41:11;;;;;;;2.60;1.15;;;;;;;14.52;52.06;102052.84;6108637;23;20006;-89
2022/12/27 00:43:37;;;;;;;2.20;1.00;;;;;;;14.53;51.83;102062.38;6132333;23;20382;-88
2022/12/27 00:46:03;;;;;;;1.83;0.90;;;;;;;14.53;52.07;102071.88;6132608;23;20009;-89
2022/12/27 00:48:29;;;;;;;2.10;1.02;;;;;;;14.52;52.10;102068.38;6132133;23;20010;-90
2022/12/27 00:51:00;;;;;;;2.72;1.05;;;;;;;14.52;51.77;102067.50;6108001;23;20010;-88
2022/12/27 00:53:27;;;;;;;3.00;1.00;;;;;;;14.54;52.00;102068.41;6156534;23;20020;-90
2022/12/27 00:55:52;;;;;;;2.97;1.02;;;;;;;14.53;52.14;102069.28;6132032;23;20334;-89
2022/12/27 00:58:18;;;;;;;2.78;1.00;;;;;;;14.52;51.79;102070.09;6107676;23;20092;-88
2022/12/27 01:00:43;;;;;;;2.72;1.08;;;;;;;14.52;52.01;102070.97;6107726;23;20072;-89
2022/12/27 01:03:08;;;;;;;1.58;0.70;;;;;;;14.53;52.07;102074.47;6131912;23;20013;-90
2022/12/27 01:05:37;;;;;;;2.92;1.00;;;;;;;14.53;51.96;102087.41;6133108;23;20035;-89
2022/12/27 01:08:03;;;;;;;2.10;0.90;;;;;;;14.53;51.91;102087.41;6108113;23;20013;-88
2022/12/27 01:10:29;;;;;;;2.95;1.10;;;;;;;14.53;51.97;102084.81;6132058;23;20357;-87
2022/12/27 01:12:55;;;;;;;2.50;1.00;;;;;;;14.52;51.96;102093.41;6158267;23;20044;-89
2022/12/27 01:15:20;;;;;;;2.05;0.95;;;;;;;14.52;52.01;102090.81;6156706;23;20036;-87
2022/12/27 01:17:45;;;;;;;2.45;1.10;;;;;;;14.51;52.00;102097.72;6107333;23;20012;-87
2022/12/27 01:20:11;;;;;;;3.28;1.00;;;;;;;14.51;51.90;102096.84;6107943;23;20016;-89
2022/12/27 01:22:37;;;;;;;2.33;1.10;;;;;;;14.50;52.01;102103.75;6132327;23;20071;-88
2022/12/27 01:25:03;;;;;;;2.17;0.93;;;;;;;14.51;52.05;102110.69;6132467;23;20096;-89
2022/12/27 01:27:28;;;;;;;2.17;0.90;;;;;;;14.50;52.01;102103.75;6108071;23;20006;-90
2022/12/27 01:29:53;;;;;;;2.13;0.88;;;;;;;14.50;51.91;102096.00;6107507;23;20037;-87
2022/12/27 01:32:19;;;;;;;1.60;0.90;;;;;;;14.51;51.95;102104.63;6107528;23;20001;-88
2022/12/27 01:34:44;;;;;;;1.88;0.90;;;;;;;14.51;52.05;102100.31;6131322;23;20020;-89
2022/12/27 01:37:10;;;;;;;1.90;0.90;;;;;;;14.51;51.81;102099.44;6132085;23;20010;-88
2022/12/27 01:39:35;;;;;;;2.80;1.00;;;;;;;14.50;51.99;102108.94;6107561;23;20009;-88
2022/12/27 01:44:48;;;;;;;;;;;;;;;14.50;52.02;102114.13;6115998;23;20036;-89
2022/12/27 01:47:46;;;;;;;3.10;1.00;;;;;;;14.50;51.85;102115.81;6156497;23;19983;-90
2022/12/27 01:50:30;;;;;;;2.03;1.00;;;;;;;14.50;51.94;102110.63;6125756;23;20017;-89
2022/12/27 01:53:04;;;;;;;1.98;0.90;;;;;;;14.50;51.98;102121.00;6156193;23;20025;-89
2022/12/27 01:55:55;;;;;;;2.38;0.93;;;;;;;14.49;51.95;102122.72;6157908;23;20002;-88
2022/12/27 01:58:45;;;;;;;1.40;0.75;;;;;;;14.51;51.90;102130.53;6131404;23;20013;-87
2022/12/27 02:01:22;;;;;;;2.35;1.00;;;;;;;14.49;52.07;102146.03;6131459;23;20311;-88
2022/12/27 02:03:58;;;;;;;3.05;1.10;;;;;;;14.50;51.86;102155.56;6157739;23;20008;-89
2022/12/27 02:06:26;;;;;;;3.35;0.93;;;;;;;14.48;52.02;102144.28;6155932;23;20087;-90
2022/12/27 02:09:07;;;;;;;2.47;1.05;;;;;;;14.48;51.89;102154.66;6131849;23;20442;-89
2022/12/27 02:11:50;;;;;;;2.72;1.27;;;;;;;14.48;52.03;102148.56;6157755;23;20025;-88
2022/12/27 02:14:36;;;;;;;1.88;0.85;;;;;;;14.48;51.77;102151.16;6134679;23;20448;-91
2022/12/27 02:17:05;;;;;;;2.25;0.80;;;;;;;14.47;52.01;102136.47;6156209;23;20448;-91
2022/12/27 02:19:49;;;;;;;2.00;1.00;;;;;;;14.47;52.05;102147.69;6131420;23;20006;-76
2022/12/27 02:25:51;;;;;;;2.22;0.93;;;;;;;14.48;51.91;102161.53;6156434;23;20350;-76
2022/12/27 02:28:32;;;;;;;2.83;1.10;;;;;;;14.48;51.81;102169.28;6154901;23;20009;-75
2022/12/27 02:31:05;;;;;;;1.73;0.88;;;;;;;14.48;52.02;102177.97;6154818;23;20052;-75
2022/12/27 02:33:35;;;;;;;1.67;0.88;;;;;;;14.48;51.86;102185.72;6130775;23;20002;-75
2022/12/27 02:36:09;;;;;;;2.47;0.93;;;;;;;14.47;52.05;102186.56;6130161;23;20016;-76
2022/12/27 02:38:47;;;;;;;2.42;1.00;;;;;;;14.47;51.94;102186.56;6130191;23;20323;-76
2022/12/27 02:58:57;;;;;;;3.50;1.20;;;;;;;14.46;52.06;102191.69;6156142;23;20370;-76
2022/12/27 03:04:40;;;;;;;2.40;1.05;;;;;;;14.45;51.88;102190.81;6156027;23;20084;-76
2022/12/27 03:07:14;;;;;;;2.28;1.00;;;;;;;14.44;52.03;102189.09;6154662;23;20041;-77
2022/12/27 03:16:08;;;;;;;2.42;0.80;;;;;;;14.44;51.91;102189.09;6156890;23;20464;-89
2022/12/27 03:19:02;;;;;;;1.80;0.80;;;;;;;14.45;51.84;102189.94;6157304;23;20016;-89
2022/12/27 03:27:29;;;;;;;3.42;0.90;;;;;;;14.43;52.13;102192.50;6158817;23;20152;-89
2022/12/27 03:35:38;;;;;;;2.03;0.80;;;;;;;14.43;52.09;102201.97;6159471;23;20028;-90
2022/12/27 03:38:05;;;;;;;1.95;0.93;;;;;;;14.42;51.77;102202.84;6157568;23;20060;-88
2022/12/27 03:43:38;;;;;;;2.55;1.00;;;;;;;14.42;51.92;102208.88;6159314;23;20341;-87
2022/12/27 03:46:34;;;;;;;1.75;0.70;;;;;;;14.42;52.07;102210.59;6109679;23;20505;-89
2022/12/27 03:49:21;;;;;;;2.35;1.00;;;;;;;14.41;51.74;102204.53;6156201;23;20350;-76
2022/12/27 03:52:05;;;;;;;2.20;0.90;;;;;;;14.42;51.81;102219.25;6156164;23;20323;-76
2022/12/27 03:54:35;;;;;;;2.67;1.02;;;;;;;14.40;51.78;102210.56;6156617;23;20013;-75
2022/12/27 03:57:10;;;;;;;2.40;1.00;;;;;;;14.40;51.76;102214.00;6131899;23;20009;-77
2022/12/27 03:59:37;;;;;;;2.47;0.75;;;;;;;14.42;51.83;102213.19;6131789;23;20092;-76
2022/12/27 04:02:02;;;;;;;1.70;0.77;;;;;;;14.39;51.86;102212.28;6132014;23;20315;-90
2022/12/27 04:04:28;;;;;;;2.30;0.80;;;;;;;14.40;51.98;102223.50;6158634;23;20012;-88
2022/12/27 04:06:53;;;;;;;2.95;1.10;;;;;;;14.40;51.68;102234.72;6108562;23;20010;-89
2022/12/27 04:36:39;;;;;;;2.53;0.90;;;;;;;14.37;51.76;102234.66;6158226;23;20315;-90
2022/12/27 04:39:04;;;;;;;2.83;1.00;;;;;;;14.37;51.81;102231.19;6107962;23;20041;-89
2022/12/27 04:55:16;;;;;;;;;;;;;;;14.36;51.82;102229.44;6116093;23;20609;-88
2022/12/27 04:57:41;;;;;;;2.60;1.05;;;;;;;14.36;51.80;102230.31;6157035;23;19991;-88
2022/12/27 05:02:51;;;;;;;3.40;1.20;;;;;;;14.35;51.63;102241.53;6116216;23;20044;-88
2022/12/27 05:05:17;;;;;;;3.33;1.00;;;;;;;14.36;51.85;102244.97;6107804;23;20084;-90
2022/12/27 05:15:55;;;;;;;2.72;0.90;;;;;;;14.36;51.46;102255.34;6158727;23;20453;-88
2022/12/27 05:18:21;;;;;;;2.10;0.80;;;;;;;14.35;51.66;102258.75;6107520;23;20006;-89
2022/12/27 05:20:46;;;;;;;1.92;0.80;;;;;;;14.34;51.70;102263.06;6108153;23;20065;-91
2022/12/27 05:25:55;;;;;;;;;;;;;;;14.34;51.90;102263.06;6138598;23;20068;-89
2022/12/27 05:28:21;;;;;;;2.05;0.80;;;;;;;14.34;51.75;102257.00;6134921;23;19908;-89
2022/12/27 05:30:46;;;;;;;2.05;0.90;;;;;;;14.34;51.58;102268.22;6108799;23;20009;-90
2022/12/27 05:33:12;;;;;;;1.92;0.95;;;;;;;14.34;51.66;102263.06;6107922;23;20591;-87
2022/12/27 05:35:38;;;;;;;1.80;0.73;;;;;;;14.34;51.75;102267.38;6133415;23;20009;-88
2022/12/27 05:38:03;;;;;;;2.55;0.98;;;;;;;14.33;51.83;102266.50;6133076;23;20014;-90
2022/12/27 05:40:29;;;;;;;1.95;0.80;;;;;;;14.33;51.73;102273.41;6158002;23;20460;-90
2022/12/27 05:42:58;;;;;;;3.17;0.80;;;;;;;14.33;51.73;102273.41;6158693;23;20001;-88
2022/12/27 05:45:23;;;;;;;2.45;0.90;;;;;;;14.33;51.71;102273.41;6132113;23;20005;-91
2022/12/27 05:47:49;;;;;;;2.33;0.93;;;;;;;14.33;52.00;102274.25;6108088;23;20462;-89
2022/12/27 05:50:14;;;;;;;3.03;0.82;;;;;;;14.33;51.49;102273.41;6158026;23;20039;-90
2022/12/27 05:52:40;;;;;;;2.28;0.90;;;;;;;14.33;51.80;102273.41;6108036;23;20143;-89
2022/12/27 05:55:06;;;;;;;2.92;0.77;;;;;;;14.32;51.80;102274.22;6109389;23;20096;-89
2022/12/27 05:57:32;;;;;;;2.65;1.00;;;;;;;14.31;51.75;102275.94;6108540;23;20016;-87
2022/12/27 05:59:57;;;;;;;2.38;0.90;;;;;;;14.31;51.68;102281.13;6132711;23;20084;-91
2022/12/27 06:02:23;;;;;;;2.13;0.80;;;;;;;14.32;51.66;102274.22;6133010;23;20033;-89
2022/12/27 06:04:48;;;;;;;2.05;0.77;;;;;;;14.32;51.80;102281.97;6108588;23;20073;-91
2022/12/27 06:07:14;;;;;;;2.25;0.77;;;;;;;14.32;51.67;102284.56;6108307;23;20005;-89
2022/12/27 06:09:41;;;;;;;2.58;0.73;;;;;;;14.31;51.68;102285.41;6107784;23;20342;-88
2022/12/27 06:12:06;;;;;;;2.03;0.93;;;;;;;14.31;51.79;102295.78;6157166;23;20008;-89
2022/12/27 06:14:33;;;;;;;3.05;0.90;;;;;;;14.32;51.51;102294.94;6132511;23;20068;-89
2022/12/27 06:16:58;;;;;;;2.42;0.98;;;;;;;14.31;51.61;102295.78;6133760;23;20013;-89
2022/12/27 06:19:23;;;;;;;3.15;1.10;;;;;;;14.31;51.62;102293.19;6106726;23;20021;-76
2022/12/27 06:21:49;;;;;;;1.90;0.80;;;;;;;14.30;51.67;102292.28;6154918;23;20346;-76
2022/12/27 06:24:15;;;;;;;2.15;0.82;;;;;;;14.32;51.57;102302.69;6130809;23;20044;-76
2022/12/27 06:26:41;;;;;;;2.20;0.95;;;;;;;14.31;51.69;102311.31;6154810;23;20005;-75
2022/12/27 06:29:10;;;;;;;2.95;0.90;;;;;;;14.30;51.68;102313.00;6130571;23;20009;-76
2022/12/27 06:31:35;;;;;;;3.45;1.10;;;;;;;14.30;51.59;102317.31;6130081;23;20072;-76
2022/12/27 06:34:01;;;;;;;1.85;0.75;;;;;;;14.30;51.33;102318.19;6130553;23;20088;-76
2022/12/27 06:36:28;;;;;;;2.03;0.80;;;;;;;14.30;51.68;102317.31;6105828;23;20456;-76
2022/12/27 06:38:53;;;;;;;1.90;1.00;;;;;;;14.30;51.37;102325.09;6106168;23;20033;-76
2022/12/27 06:41:19;;;;;;;3.05;0.90;;;;;;;14.30;51.49;102322.50;6130091;23;20006;-76
2022/12/27 06:43:45;;;;;;;2.53;0.90;;;;;;;14.29;51.62;102324.22;6130427;23;20009;-77
2022/12/27 06:46:14;;;;;;;3.47;1.05;;;;;;;14.30;51.53;102322.50;6154799;23;20092;-76
2022/12/27 06:48:39;;;;;;;2.47;0.90;;;;;;;14.29;51.74;102325.94;6130320;23;20346;-76
2022/12/27 06:51:07;;;;;;;2.35;0.80;;;;;;;14.29;51.78;102328.53;6130169;23;20009;-76
2022/12/27 06:53:35;;;;;;;2.13;0.70;;;;;;;14.29;51.86;102331.09;6129893;23;20009;-76
2022/12/27 06:56:09;;;;;;;2.40;0.90;;;;;;;14.28;51.59;102327.63;6106141;23;20005;-75
2022/12/27 06:58:35;;;;;;;2.15;0.80;;;;;;;14.29;51.69;102333.69;6129974;23;20378;-77
2022/12/27 07:01:18;;;;;;;3.13;0.82;;;;;;;14.28;51.68;102326.75;6105231;23;20010;-76
2022/12/27 07:03:50;;;;;;;1.90;0.80;;;;;;;14.28;51.45;102334.50;6130827;23;20088;-76
2022/12/27 07:06:15;;;;;;;2.28;0.70;;;;;;;14.28;51.51;102331.94;6130098;23;20084;-76
2022/12/27 07:08:41;;;;;;;2.22;0.73;;;;;;;14.28;51.69;102334.50;6105714;23;20092;-76
2022/12/27 07:11:09;;;;;;;2.25;0.98;;;;;;;14.26;51.55;102331.88;6130171;23;20088;-77
2022/12/27 07:13:37;;;;;;;2.40;0.80;;;;;;;14.26;51.65;102337.06;6130226;23;20068;-77
2022/12/27 07:16:04;;;;;;;1.40;0.80;;;;;;;14.26;51.58;102341.38;6130144;23;20006;-75
2022/12/27 07:18:30;;;;;;;1.73;0.70;;;;;;;14.27;51.60;102351.78;6105578;23;20426;-76
2022/12/27 07:20:55;;;;;;;2.72;1.00;;;;;;;14.27;51.55;102348.31;6130195;23;20037;-76
2022/12/27 07:23:21;;;;;;;1.95;0.80;;;;;;;14.27;51.53;102356.09;6105484;23;20020;-76
2022/12/27 07:25:46;;;;;;;2.95;0.98;;;;;;;14.26;51.47;102349.13;6105503;23;20010;-76
2022/12/27 07:28:11;;;;;;;3.08;0.95;;;;;;;14.26;51.63;102351.72;6105922;23;20009;-76
2022/12/27 07:30:40;;;;;;;1.95;1.05;;;;;;;14.27;51.49;102361.25;6105777;23;20009;-77
2022/12/27 07:33:07;;;;;;;2.30;0.90;;;;;;;14.25;51.54;102345.66;6105323;23;20452;-75
2022/12/27 07:35:33;;;;;;;2.60;0.93;;;;;;;14.26;51.61;102349.13;6156301;23;20445;-76
2022/12/27 07:37:59;;;;;;;3.00;0.85;;;;;;;14.25;51.63;102348.25;6129954;23;20094;-76
2022/12/27 07:40:24;;;;;;;2.25;0.80;;;;;;;14.25;51.37;102347.41;6130047;23;20036;-76
2022/12/27 07:42:50;;;;;;;2.28;1.00;;;;;;;14.26;51.53;102356.91;6107163;23;20005;-90
2022/12/27 07:45:15;;;;;;;2.65;1.00;;;;;;;14.26;51.53;102355.19;6131974;23;20002;-90
2022/12/27 07:47:41;;;;;;;1.65;0.80;;;;;;;14.27;51.45;102358.69;6132696;23;20056;-91
2022/12/27 07:50:06;;;;;;;2.20;0.80;;;;;;;14.26;51.40;102362.06;6132838;23;20020;-92
2022/12/27 07:52:32;;;;;;;2.47;0.80;;;;;;;14.26;51.58;102364.66;6156228;23;20024;-90
2022/12/27 07:54:57;;;;;;;1.77;0.82;;;;;;;14.26;51.48;102372.44;6107153;23;20021;-88
2022/12/27 07:57:23;;;;;;;1.88;0.77;;;;;;;14.25;51.49;102374.16;6107474;23;20005;-90
2022/12/27 07:59:48;;;;;;;2.35;0.70;;;;;;;14.25;51.39;102368.09;6132088;23;20426;-89
2022/12/27 08:02:15;;;;;;;1.15;0.73;;;;;;;14.25;51.37;102368.97;6109262;23;20038;-90
2022/12/27 08:04:41;;;;;;;2.38;0.90;;;;;;;14.25;51.45;102375.88;6110788;23;20014;-89
2022/12/27 08:07:18;;;;;;;2.95;1.08;;;;;;;14.25;51.53;102366.38;6132038;23;20063;-90
2022/12/27 08:09:46;;;;;;;2.15;0.98;;;;;;;14.26;51.37;102372.44;6129491;23;20005;-76
2022/12/27 08:12:14;;;;;;;2.10;0.70;;;;;;;14.26;51.86;102372.44;6106366;23;20002;-76
2022/12/27 08:14:40;;;;;;;1.92;0.73;;;;;;;14.26;51.33;102367.25;6084366;23;20010;-77
2022/12/27 08:17:16;;;;;;;2.25;1.00;;;;;;;14.27;51.54;102380.25;6107097;23;20104;-77
2022/12/27 08:19:42;;;;;;;2.85;0.93;;;;;;;14.28;51.24;102375.94;6157495;23;20020;-76
2022/12/27 08:22:08;;;;;;;2.17;0.82;;;;;;;14.28;51.39;102383.72;6131370;23;20010;-76
2022/12/27 08:24:34;;;;;;;1.75;1.05;;;;;;;14.28;51.34;102389.75;6107631;23;20009;-77
2022/12/27 08:26:59;;;;;;;1.85;0.80;;;;;;;14.26;51.41;102387.97;6106959;23;20494;-77
2022/12/27 08:29:24;;;;;;;1.60;0.80;;;;;;;14.27;51.46;102394.94;6106467;23;20469;-77
2022/12/27 08:31:50;;;;;;;1.92;0.70;;;;;;;14.27;51.38;102390.63;6131190;23;20013;-76
2022/12/27 08:34:15;;;;;;;2.88;0.90;;;;;;;14.27;51.18;102398.38;6107011;23;20006;-76
2022/12/27 08:36:41;;;;;;;2.00;0.88;;;;;;;14.28;51.43;102402.72;6131505;23;20538;-76
2022/12/27 08:39:06;;;;;;;2.72;0.90;;;;;;;14.29;51.42;102398.44;6106752;23;20019;-76
2022/12/27 08:41:32;;;;;;;2.83;0.90;;;;;;;14.27;51.27;102400.09;6106859;23;20006;-76
2022/12/27 08:43:57;;;;;;;2.53;0.80;;;;;;;14.28;51.42;102407.03;6131264;23;20010;-77
2022/12/27 08:46:23;;;;;;;3.75;1.02;;;;;;;14.27;51.46;102398.38;6106759;23;20002;-77
2022/12/27 08:48:49;;;;;;;1.95;0.77;;;;;;;14.27;51.31;102398.38;6131178;23;20063;-76
2022/12/27 08:51:15;;;;;;;2.45;0.90;;;;;;;14.28;51.48;102396.66;6106441;23;20006;-78
2022/12/27 08:53:40;;;;;;;2.22;0.60;;;;;;;14.28;51.44;102394.06;6155686;23;20017;-76
2022/12/27 08:56:06;;;;;;;2.97;0.90;;;;;;;14.28;51.09;102392.34;6106778;23;20029;-77
2022/12/27 08:58:31;;;;;;;2.55;0.85;;;;;;;14.30;51.32;102392.41;6106688;23;20446;-76
2022/12/27 09:01:06;;;;;;;3.25;0.95;;;;;;;14.30;51.34;102392.41;6106694;23;20097;-76
2022/12/27 09:03:32;;;;;;;1.40;0.70;;;;;;;14.30;51.17;102395.88;6131298;23;20060;-76
2022/12/27 09:06:18;;;;;;;1.90;0.88;;;;;;;14.32;51.22;102398.50;6131187;23;20014;-77
2022/12/27 09:08:45;;;;;;;1.55;0.82;;;;;;;14.32;51.47;102398.50;6157128;23;20009;-76
2022/12/27 09:11:19;;;;;;;2.65;0.80;;;;;;;14.33;51.34;102400.28;6131274;23;20017;-76
2022/12/27 09:13:45;;;;;;;1.85;0.80;;;;;;;14.32;51.31;102389.03;6131020;23;20005;-76
2022/12/27 09:16:14;;;;;;;1.95;0.90;;;;;;;14.31;51.23;102396.78;6131267;23;20096;-77
2022/12/27 09:18:41;;;;;;;2.47;0.93;;;;;;;14.30;51.45;102395.88;6131104;23;20056;-76
2022/12/27 09:21:12;;;;;;;1.98;0.93;;;;;;;14.32;51.40;102401.09;6130767;23;20012;-76
2022/12/27 09:23:38;;;;;;;2.13;0.90;;;;;;;14.33;51.32;102402.88;6155415;23;20005;-76
2022/12/27 09:26:13;;;;;;;2.20;0.80;;;;;;;14.33;51.41;102398.56;6155640;23;20136;-76
2022/12/27 09:28:39;;;;;;;1.63;0.70;;;;;;;14.33;51.35;102402.88;6130967;23;20063;-76
2022/12/27 09:31:05;;;;;;;2.58;1.00;;;;;;;14.32;51.24;102401.97;6106557;23;20090;-76
2022/12/27 09:33:30;;;;;;;2.80;0.88;;;;;;;14.31;51.38;102408.00;6106892;23;20033;-76
2022/12/27 09:36:04;;;;;;;2.15;0.88;;;;;;;14.31;51.27;102409.72;6157047;23;20414;-76
2022/12/27 09:38:29;;;;;;;2.30;0.80;;;;;;;14.31;51.45;102407.13;6156931;23;20367;-77
2022/12/27 09:40:58;;;;;;;1.67;0.80;;;;;;;14.30;51.27;102406.22;6130901;23;20009;-76
2022/12/27 09:43:36;;;;;;;2.10;0.82;;;;;;;14.30;51.46;102416.59;6130794;23;20016;-76
2022/12/27 09:46:04;;;;;;;2.58;0.68;;;;;;;14.31;51.32;102417.50;6155630;23;20005;-76
2022/12/27 09:48:35;;;;;;;2.28;0.90;;;;;;;14.31;51.24;102423.53;6130580;23;20010;-76
2022/12/27 09:51:09;;;;;;;1.80;0.75;;;;;;;14.31;51.62;102420.94;6130702;23;19997;-76
2022/12/27 09:53:43;;;;;;;3.25;0.95;;;;;;;14.32;51.29;102419.22;6130430;23;20018;-76
2022/12/27 09:56:12;;;;;;;1.52;0.77;;;;;;;14.33;51.10;102428.78;6130596;23;20025;-76
2022/12/27 09:58:51;;;;;;;2.20;1.00;;;;;;;14.33;51.32;102423.59;6130672;23;20021;-75
2022/12/27 10:01:39;;;;;;;2.00;0.80;;;;;;;14.33;51.29;102428.78;6130489;23;20005;-76
2022/12/27 10:04:11;;;;;;;2.30;0.90;;;;;;;14.35;51.08;102427.06;6130647;23;20009;-76
2022/12/27 10:06:49;;;;;;;1.30;0.77;;;;;;;14.34;51.39;102428.78;6130362;23;20418;-75
2022/12/27 10:09:52;;;;;;;2.50;0.80;;;;;;;14.32;51.18;102433.06;6130623;23;20009;-76
2022/12/27 10:12:42;;;;;;;3.63;0.90;;;;;;;14.33;51.29;102426.19;6130559;23;20076;-76
2022/12/27 10:15:35;;;;;;;1.52;0.73;;;;;;;14.33;51.25;102418.41;6155059;23;20092;-76
2022/12/27 10:18:25;;;;;;;2.80;0.88;;;;;;;14.34;51.17;102423.63;6156959;23;20005;-77
2022/12/27 10:20:58;;;;;;;2.80;1.00;;;;;;;14.34;51.17;102421.03;6154979;23;20323;-75
2022/12/27 10:23:30;;;;;;;1.30;0.70;;;;;;;14.35;51.34;102419.31;6130356;23;20010;-77
2022/12/27 10:26:03;;;;;;;2.20;0.75;;;;;;;14.33;51.19;102415.81;6156513;23;20477;-75
2022/12/27 10:28:37;;;;;;;2.55;0.70;;;;;;;14.33;51.30;102423.59;6130377;23;20060;-76
2022/12/27 10:31:03;;;;;;;1.90;1.00;;;;;;;14.35;51.16;102419.31;6130187;23;20001;-76
2022/12/27 10:33:33;;;;;;;2.60;0.90;;;;;;;14.35;51.33;102416.72;6156706;23;20009;-76
2022/12/27 10:36:13;;;;;;;2.25;0.90;;;;;;;14.34;51.06;102415.84;6132794;23;20005;-76
2022/12/27 10:38:38;;;;;;;2.50;1.10;;;;;;;14.38;51.13;102416.81;6130755;23;20001;-75
2022/12/27 10:41:26;;;;;;;3.00;1.00;;;;;;;14.38;51.13;102411.66;6156158;23;20077;-76
2022/12/27 10:43:53;;;;;;;2.42;0.80;;;;;;;14.39;51.19;102426.34;6112040;23;20002;-76
2022/12/27 10:46:23;;;;;;;3.53;0.90;;;;;;;14.39;51.30;102421.16;6130491;23;20419;-76
2022/12/27 10:48:57;;;;;;;2.00;0.70;;;;;;;14.38;51.28;102419.41;6156503;23;20010;-75
2022/12/27 10:51:25;;;;;;;2.90;0.70;;;;;;;14.39;51.35;102422.06;6156291;23;20382;-76
2022/12/27 10:53:50;;;;;;;2.38;1.20;;;;;;;14.39;51.16;102423.75;6130181;23;20017;-76
2022/12/27 10:56:34;;;;;;;1.35;0.63;;;;;;;14.37;51.44;102418.53;6130124;23;20006;-76
2022/12/27 10:59:18;;;;;;;2.22;0.68;;;;;;;14.39;51.17;102423.75;6156119;23;20434;-75
2022/12/27 11:01:45;;;;;;;2.30;0.80;;;;;;;14.38;51.32;102422.00;6156155;23;20002;-76
2022/12/27 11:04:22;;;;;;;3.17;0.88;;;;;;;14.38;51.43;102415.09;6105486;23;20041;-75
2022/12/27 11:06:50;;;;;;;1.63;0.85;;;;;;;14.38;51.34;102416.81;6105579;23;20016;-76
2022/12/27 11:09:34;;;;;;;2.97;0.80;;;;;;;14.38;51.46;102411.66;6156746;23;20012;-75
2022/12/27 11:12:17;;;;;;;1.77;0.75;;;;;;;14.37;51.21;102420.22;6129961;23;20008;-76
2022/12/27 11:14:55;;;;;;;3.60;0.80;;;;;;;14.38;51.07;102416.81;6129983;23;20449;-76
2022/12/27 11:17:41;;;;;;;2.22;0.90;;;;;;;14.39;51.41;102415.97;6129978;23;20426;-76
2022/12/27 11:20:26;;;;;;;1.35;0.60;;;;;;;14.39;51.26;102411.69;6130369;23;20338;-76
2022/12/27 11:22:57;;;;;;;2.22;0.90;;;;;;;14.40;51.17;102403.09;6129790;23;20102;-76
2022/12/27 11:25:25;;;;;;;2.15;0.80;;;;;;;14.39;51.21;102403.94;6129954;23;20452;-75
2022/12/27 11:27:55;;;;;;;1.42;0.80;;;;;;;14.39;51.49;102409.09;6129357;23;20006;-76
2022/12/27 11:30:32;;;;;;;2.22;0.95;;;;;;;14.39;51.31;102410.78;6129774;23;20012;-75
2022/12/27 11:33:19;;;;;;;2.55;0.90;;;;;;;14.40;51.26;102409.97;6129880;23;20005;-76
2022/12/27 11:35:49;;;;;;;3.53;1.00;;;;;;;14.39;51.62;102395.25;6129681;23;20006;-76
2022/12/27 11:38:24;;;;;;;2.50;0.90;;;;;;;14.39;51.30;102397.84;6129599;23;20029;-76
2022/12/27 11:41:19;;;;;;;2.05;0.80;;;;;;;14.39;51.31;102397.84;6129707;23;20009;-76
2022/12/27 11:43:51;;;;;;;4.28;0.95;;;;;;;14.38;51.27;102396.97;6150943;23;20005;-78
2022/12/27 11:46:42;;;;;;;2.72;1.10;;;;;;;14.38;51.39;102402.16;6130024;23;20334;-76
2022/12/27 11:49:18;;;;;;;1.70;0.80;;;;;;;14.39;51.52;102395.25;6156318;23;20013;-76
2022/12/27 11:51:59;;;;;;;3.65;1.10;;;;;;;14.39;51.46;102396.16;6157562;23;20426;-77
2022/12/27 11:54:37;;;;;;;2.97;0.98;;;;;;;14.40;51.33;102394.44;6131531;23;19997;-77
2022/12/27 11:57:27;;;;;;;1.88;0.80;;;;;;;14.39;51.48;102390.97;6131534;23;20084;-76
2022/12/27 12:00:11;;;;;;;1.90;0.88;;;;;;;14.40;51.45;102391.84;6131488;23;20028;-76
2022/12/27 12:03:03;;;;;;;2.05;0.98;;;;;;;14.39;51.33;102384.91;6131532;23;20137;-74
2022/12/27 12:05:44;;;;;;;2.42;0.90;;;;;;;14.39;51.27;102383.22;6131400;23;20377;-76
2022/12/27 12:08:34;;;;;;;3.10;0.80;;;;;;;14.38;51.46;102378.84;6156127;23;20144;-76
2022/12/27 12:11:17;;;;;;;2.42;1.00;;;;;;;14.37;51.38;102365.84;6156168;23;20005;-76
2022/12/27 12:13:46;;;;;;;2.13;0.70;;;;;;;14.38;51.27;102365.91;6156733;23;20012;-76
2022/12/27 12:16:41;;;;;;;2.80;0.95;;;;;;;14.38;51.37;102355.53;6157680;23;20029;-75
2022/12/27 12:19:23;;;;;;;2.22;0.70;;;;;;;14.37;51.35;102356.38;6156011;23;20100;-77
2022/12/27 12:22:13;;;;;;;2.95;1.00;;;;;;;14.36;51.28;102344.25;6131221;23;20010;-77
2022/12/27 12:25:17;;;;;;;2.22;0.85;;;;;;;14.36;51.50;102333.91;6155989;23;20009;-77
2022/12/27 12:28:15;;;;;;;1.83;0.80;;;;;;;14.36;51.40;102338.22;6038689;23;20015;-76
2022/12/27 12:31:17;;;;;;;3.88;1.00;;;;;;;14.36;51.40;102328.72;6038652;23;20243;-76
2022/12/27 12:34:00;;;;;;;1.15;0.70;;;;;;;14.36;51.55;102320.09;6144090;23;20005;-75
2022/12/27 12:36:51;;;;;;;1.98;0.90;;;;;;;14.38;51.39;102326.19;6131150;23;20005;-75
2022/12/27 12:39:47;;;;;;;1.80;0.88;;;;;;;14.37;51.45;102319.22;6131218;23;20056;-76
2022/12/27 12:42:20;;;;;;;2.20;0.80;;;;;;;14.37;51.48;102306.28;6131291;23;20027;-77
2022/12/27 12:45:24;;;;;;;1.65;0.90;;;;;;;14.37;51.40;102301.09;6131297;23;20005;-76
2022/12/27 12:47:57;;;;;;;2.17;0.90;;;;;;;14.37;51.35;102295.91;6090626;23;20311;-76
2022/12/27 12:50:49;;;;;;;2.40;1.00;;;;;;;14.34;51.31;102294.13;6131225;23;20014;-76
2022/12/27 12:53:36;;;;;;;3.55;0.98;;;;;;;14.36;51.37;102283.81;6131051;23;20025;-76
2022/12/27 12:56:51;;;;;;;2.53;0.90;;;;;;;14.36;51.45;102276.06;6155714;23;20032;-76
2022/12/27 12:59:45;;;;;;;2.42;1.00;;;;;;;14.37;51.43;102270.94;6129778;23;20001;-75
2022/12/27 13:02:31;;;;;;;2.75;0.90;;;;;;;14.37;51.32;102260.56;6155428;23;20359;-75
2022/12/27 13:05:02;;;;;;;2.97;0.98;;;;;;;14.38;51.53;102264.03;6155653;23;20009;-76
2022/12/27 13:07:33;;;;;;;2.10;0.88;;;;;;;14.38;51.54;102256.25;6130998;23;20006;-76
2022/12/27 13:10:11;;;;;;;2.08;0.98;;;;;;;14.39;51.51;102258.00;6131031;23;20365;-76
2022/12/27 13:13:30;;;;;;;2.10;0.98;;;;;;;14.37;51.51;102254.47;6130833;23;20008;-75
2022/12/27 13:16:10;;;;;;;2.03;0.80;;;;;;;14.38;51.53;102251.06;6014452;23;20026;-76
2022/12/27 13:18:42;;;;;;;1.70;0.85;;;;;;;14.37;51.46;102245.03;6142561;23;20013;-76
2022/12/27 13:21:24;;;;;;;2.63;1.00;;;;;;;14.39;51.52;102245.03;6155380;23;20012;-77
2022/12/27 13:24:01;;;;;;;1.98;0.88;;;;;;;14.39;51.47;102237.28;6157034;23;20001;-75
2022/12/27 13:26:42;;;;;;;2.60;1.05;;;;;;;14.39;51.39;102237.28;6155271;23;20008;-77
2022/12/27 13:29:22;;;;;;;1.33;0.70;;;;;;;14.40;51.52;102236.47;6157042;23;20024;-76
2022/12/27 13:32:27;;;;;;;2.42;0.80;;;;;;;14.39;51.49;102240.75;6155451;23;20009;-76
2022/12/27 13:35:18;;;;;;;2.38;1.00;;;;;;;14.40;51.40;102232.13;6125115;23;20414;-76